createdAt,value
2023-04-23T00:02:17.283Z,16.27
2023-04-23T00:04:52.942Z,15.93
2023-04-23T00:07:23.930Z,15.93
2023-04-23T00:09:56.458Z,17.52
2023-04-23T00:12:24.269Z,11.95
2023-04-23T00:14:52.238Z,16.20
2023-04-23T00:17:20.134Z,8.30
2023-04-23T00:19:47.812Z,15.35
2023-04-23T00:22:17.312Z,15.38
2023-04-23T00:24:44.564Z,14.25
2023-04-23T00:27:11.924Z,15.27
2023-04-23T00:29:39.410Z,12.95
2023-04-23T00:32:08.388Z,14.98
2023-04-23T00:34:35.868Z,11.55
2023-04-23T00:37:06.834Z,8.63
2023-04-23T00:39:34.252Z,13.95
2023-04-23T00:42:07.254Z,13.68
2023-04-23T00:44:34.672Z,9.13
2023-04-23T00:47:02.677Z,14.15
2023-04-23T00:49:30.933Z,15.38
2023-04-23T00:51:58.106Z,11.98
2023-04-23T00:54:25.370Z,13.75
2023-04-23T00:56:53.759Z,15.63
2023-04-23T00:59:21.559Z,13.13
2023-04-23T01:01:48.884Z,14.35
2023-04-23T01:04:18.055Z,18.52
2023-04-23T01:06:47.469Z,12.95
2023-04-23T01:09:15.848Z,12.35
2023-04-23T01:11:44.204Z,10.18
2023-04-23T01:14:11.771Z,12.23
2023-04-23T01:16:39.279Z,18.00
2023-04-23T01:19:08.281Z,14.82
2023-04-23T01:21:37.090Z,15.77
2023-04-23T01:24:05.730Z,14.13
2023-04-23T01:26:34.001Z,11.45
2023-04-23T01:29:01.956Z,16.33
2023-04-23T01:31:30.945Z,14.88
2023-04-23T01:34:00.526Z,15.20
2023-04-23T01:36:28.280Z,17.05
2023-04-23T01:38:55.749Z,12.18
2023-04-23T01:41:23.019Z,10.20
2023-04-23T01:43:50.773Z,13.82
2023-04-23T01:46:18.405Z,11.35
2023-04-23T01:48:45.629Z,13.07
2023-04-23T01:51:12.901Z,12.50
2023-04-23T01:53:40.020Z,14.05
2023-04-23T01:56:10.081Z,10.45
2023-04-23T01:58:37.501Z,11.90
2023-04-23T02:01:04.793Z,12.88
2023-04-23T02:03:34.188Z,10.20
2023-04-23T02:06:01.820Z,15.00
2023-04-23T02:08:29.207Z,11.07
2023-04-23T02:10:58.052Z,14.65
2023-04-23T02:13:25.345Z,13.27
2023-04-23T02:15:52.629Z,9.38
2023-04-23T02:18:19.956Z,12.35
2023-04-23T02:20:47.449Z,16.50
2023-04-23T02:23:14.658Z,14.50
2023-04-23T02:25:43.523Z,11.43
2023-04-23T02:28:13.561Z,11.95
2023-04-23T02:30:46.834Z,8.48
2023-04-23T02:33:14.501Z,11.13
2023-04-23T02:35:41.940Z,10.73
2023-04-23T02:38:09.313Z,12.63
2023-04-23T02:40:36.880Z,9.57
2023-04-23T02:43:04.149Z,12.55
2023-04-23T02:45:31.335Z,12.52
2023-04-23T02:47:58.648Z,11.40
2023-04-23T02:50:26.119Z,9.88
2023-04-23T02:52:53.498Z,11.05
2023-04-23T02:55:21.135Z,9.75
2023-04-23T02:57:48.579Z,7.82
2023-04-23T03:00:17.161Z,9.32
2023-04-23T03:02:45.565Z,11.52
2023-04-23T03:05:13.894Z,14.02
2023-04-23T03:07:42.141Z,13.63
2023-04-23T03:10:10.026Z,10.23
2023-04-23T03:12:37.602Z,8.95
2023-04-23T03:15:05.918Z,8.82
2023-04-23T03:17:35.999Z,10.35
2023-04-23T03:20:04.296Z,8.88
2023-04-23T03:22:31.759Z,9.77
2023-04-23T03:24:59.230Z,10.02
2023-04-23T03:27:27.010Z,11.63
2023-04-23T03:29:55.471Z,10.02
2023-04-23T03:32:23.298Z,12.52
2023-04-23T03:34:51.014Z,10.07
2023-04-23T03:37:18.659Z,11.20
2023-04-23T03:39:46.217Z,10.77
2023-04-23T03:42:14.128Z,6.00
2023-04-23T03:44:41.738Z,12.23
2023-04-23T03:47:09.481Z,9.02
2023-04-23T03:49:38.458Z,11.38
2023-04-23T03:52:06.272Z,9.25
2023-04-23T03:54:37.357Z,11.20
2023-04-23T03:57:13.985Z,9.50
2023-04-23T03:59:55.919Z,13.98
2023-04-23T04:02:25.075Z,7.85
2023-04-23T04:04:55.231Z,5.90
2023-04-23T04:07:25.020Z,9.82
2023-04-23T04:09:55.322Z,9.70
2023-04-23T04:12:25.913Z,9.13
2023-04-23T04:14:53.246Z,7.70
2023-04-23T04:17:20.662Z,13.23
2023-04-23T04:19:48.684Z,8.98
2023-04-23T04:22:16.396Z,11.10
2023-04-23T04:24:44.098Z,11.43
2023-04-23T04:27:11.794Z,10.95
2023-04-23T04:29:41.845Z,12.93
2023-04-23T04:32:10.517Z,10.40
2023-04-23T04:34:39.429Z,11.20
2023-04-23T04:37:07.179Z,10.65
2023-04-23T04:39:34.599Z,7.80
2023-04-23T04:42:03.084Z,14.48
2023-04-23T04:44:31.006Z,7.93
2023-04-23T04:46:58.579Z,10.95
2023-04-23T04:49:26.062Z,15.70
2023-04-23T04:51:54.441Z,9.63
2023-04-23T04:54:22.103Z,14.80
2023-04-23T04:56:49.516Z,10.75
2023-04-23T04:59:16.911Z,16.55
2023-04-23T05:01:44.894Z,9.73
2023-04-23T05:04:12.450Z,14.52
2023-04-23T05:06:39.897Z,9.63
2023-04-23T05:09:08.529Z,15.23
2023-04-23T05:11:36.255Z,10.57
2023-04-23T05:14:04.781Z,9.75
2023-04-23T05:16:32.106Z,12.50
2023-04-23T05:18:59.710Z,15.07
2023-04-23T05:21:27.910Z,13.35
2023-04-23T05:23:55.871Z,14.52
2023-04-23T05:26:23.462Z,12.93
2023-04-23T05:28:51.077Z,15.40
2023-04-23T05:31:22.051Z,13.63
2023-04-23T05:33:50.762Z,16.73
2023-04-23T05:36:18.963Z,11.05
2023-04-23T05:38:46.935Z,14.45
2023-04-23T05:41:14.922Z,12.30
2023-04-23T05:43:42.456Z,9.68
2023-04-23T05:46:09.817Z,10.20
2023-04-23T05:48:37.280Z,12.98
2023-04-23T05:51:04.920Z,7.25
2023-04-23T05:53:32.422Z,9.93
2023-04-23T05:56:00.023Z,10.63
2023-04-23T05:58:27.875Z,11.27
2023-04-23T06:00:55.472Z,12.77
2023-04-23T06:03:22.921Z,10.68
2023-04-23T06:05:50.483Z,8.48
2023-04-23T06:08:18.705Z,10.38
2023-04-23T06:10:46.493Z,11.60
2023-04-23T06:13:13.807Z,11.45
2023-04-23T06:18:37.943Z,7.43
2023-04-23T06:21:06.272Z,7.90
2023-04-23T06:23:34.480Z,11.68
2023-04-23T06:26:02.224Z,12.48
2023-04-23T06:28:29.809Z,10.00
2023-04-23T06:31:19.893Z,8.80
2023-04-23T06:33:47.718Z,8.20
2023-04-23T06:36:14.911Z,7.60
2023-04-23T06:38:42.493Z,8.50
2023-04-23T06:41:09.966Z,15.57
2023-04-23T06:43:37.437Z,10.38
2023-04-23T06:46:25.100Z,14.25
2023-04-23T06:48:52.468Z,13.77
2023-04-23T06:51:19.880Z,8.23
2023-04-23T06:53:47.751Z,10.60
2023-04-23T06:56:15.142Z,19.40
2023-04-23T06:58:42.704Z,13.05
2023-04-23T07:01:19.422Z,15.48
2023-04-23T07:03:49.442Z,13.93
2023-04-23T07:06:19.577Z,11.57
2023-04-23T07:08:47.085Z,12.73
2023-04-23T07:11:14.329Z,19.15
2023-04-23T07:13:42.527Z,18.83
2023-04-23T07:16:09.881Z,23.35
2023-04-23T07:18:37.339Z,25.92
2023-04-23T07:21:04.806Z,22.55
2023-04-23T07:23:32.090Z,28.33
2023-04-23T07:25:59.564Z,27.25
2023-04-23T07:28:26.986Z,30.60
2023-04-23T07:30:54.494Z,27.52
2023-04-23T07:33:21.919Z,22.65
2023-04-23T07:35:49.536Z,31.55
2023-04-23T07:38:16.860Z,22.20
2023-04-23T07:40:44.337Z,26.08
2023-04-23T07:43:15.332Z,31.20
2023-04-23T07:45:43.189Z,24.17
2023-04-23T07:48:10.932Z,19.98
2023-04-23T07:50:54.910Z,29.17
2023-04-23T07:53:23.278Z,22.30
2023-04-23T07:55:50.857Z,22.88
2023-04-23T07:58:18.243Z,28.35
2023-04-23T08:00:46.546Z,35.75
2023-04-23T08:03:13.977Z,32.63
2023-04-23T08:05:41.996Z,37.25
2023-04-23T08:08:11.408Z,30.73
2023-04-23T08:10:38.786Z,32.42
2023-04-23T08:13:05.971Z,34.00
2023-04-23T08:15:33.293Z,34.33
2023-04-23T08:18:01.009Z,30.67
2023-04-23T08:20:28.430Z,24.10
2023-04-23T08:22:56.823Z,29.85
2023-04-23T08:25:24.322Z,39.08
2023-04-23T08:27:51.496Z,43.22
2023-04-23T08:30:18.774Z,38.38
2023-04-23T08:32:51.379Z,36.35
2023-04-23T08:35:18.726Z,30.27
2023-04-23T08:37:46.456Z,27.40
2023-04-23T08:40:13.814Z,34.80
2023-04-23T08:43:02.196Z,28.48
2023-04-23T08:45:30.851Z,35.33
2023-04-23T08:48:02.118Z,32.15
2023-04-23T08:50:31.300Z,29.13
2023-04-23T08:52:59.134Z,29.52
2023-04-23T08:55:26.729Z,30.10
2023-04-23T08:57:58.391Z,34.55
2023-04-23T09:00:26.338Z,38.45
2023-04-23T09:02:54.208Z,26.35
2023-04-23T09:05:21.999Z,22.40
2023-04-23T09:07:49.449Z,25.50
2023-04-23T09:10:18.673Z,20.90
2023-04-23T09:12:46.934Z,19.00
2023-04-23T09:15:14.570Z,17.35
2023-04-23T09:17:46.453Z,16.10
2023-04-23T09:20:15.332Z,11.35
2023-04-23T09:22:47.303Z,18.55
2023-04-23T09:25:24.720Z,11.00
2023-04-23T09:27:53.355Z,10.80
2023-04-23T09:30:21.153Z,11.88
2023-04-23T09:32:49.810Z,12.63
2023-04-23T09:35:20.295Z,10.68
2023-04-23T09:42:16.415Z,8.05
2023-04-23T09:44:43.671Z,12.00
2023-04-23T09:47:12.403Z,9.40
2023-04-23T09:49:50.211Z,8.73
2023-04-23T09:52:18.612Z,9.13
2023-04-23T09:54:46.980Z,10.07
2023-04-23T09:57:14.594Z,10.68
2023-04-23T09:59:48.753Z,11.23
2023-04-23T10:02:20.499Z,13.60
2023-04-23T10:04:54.569Z,10.27
2023-04-23T10:07:25.809Z,9.23
2023-04-23T10:09:52.961Z,10.80
2023-04-23T10:12:41.161Z,15.23
2023-04-23T10:15:10.855Z,16.60
2023-04-23T10:17:39.390Z,9.43
2023-04-23T10:20:08.543Z,14.40
2023-04-23T10:22:38.044Z,11.27
2023-04-23T10:25:09.409Z,13.52
2023-04-23T10:27:52.245Z,10.93
2023-04-23T10:30:22.387Z,10.63
2023-04-23T10:32:51.086Z,13.20
2023-04-23T10:35:18.791Z,10.55
2023-04-23T10:37:48.428Z,10.07
2023-04-23T10:40:22.171Z,8.43
2023-04-23T10:42:50.388Z,7.38
2023-04-23T10:47:49.579Z,8.20
2023-04-23T10:50:29.155Z,6.53
2023-04-23T10:52:58.337Z,7.28
2023-04-23T10:55:31.114Z,5.57
2023-04-23T10:58:03.302Z,9.38
2023-04-23T11:00:43.453Z,9.15
2023-04-23T11:03:33.190Z,7.93
2023-04-23T11:06:05.132Z,9.23
2023-04-23T11:08:32.877Z,7.95
2023-04-23T11:11:01.816Z,11.45
2023-04-23T11:13:30.610Z,8.48
2023-04-23T11:16:23.406Z,9.48
2023-04-23T11:19:00.133Z,6.28
2023-04-23T11:22:02.403Z,9.52
2023-04-23T11:24:42.768Z,7.82
2023-04-23T11:27:13.239Z,8.93
2023-04-23T11:29:43.281Z,7.95
2023-04-23T11:32:13.146Z,10.25
2023-04-23T11:34:43.423Z,10.30
2023-04-23T11:37:12.427Z,14.80
2023-04-23T11:39:41.579Z,13.18
2023-04-23T11:42:14.397Z,13.25
2023-04-23T11:44:42.770Z,16.05
2023-04-23T11:47:12.566Z,13.30
2023-04-23T11:49:41.219Z,11.45
2023-04-23T11:52:09.507Z,9.60
2023-04-23T11:54:37.131Z,14.65
2023-04-23T11:57:05.951Z,10.20
2023-04-23T11:59:33.112Z,12.35
2023-04-23T12:02:00.822Z,18.35
2023-04-23T12:04:32.058Z,18.10
2023-04-23T12:06:59.990Z,13.65
2023-04-23T12:09:29.460Z,12.60
2023-04-23T12:12:00.812Z,12.95
2023-04-23T12:14:30.098Z,16.23
2023-04-23T12:16:58.953Z,23.73
2023-04-23T12:19:28.670Z,10.25
2023-04-23T12:21:59.250Z,16.70
2023-04-23T12:24:28.764Z,12.50
2023-04-23T12:27:02.982Z,15.13
2023-04-23T12:29:31.903Z,11.07
2023-04-23T12:32:00.241Z,12.15
2023-04-23T12:34:27.691Z,12.15
2023-04-23T12:36:56.327Z,12.52
2023-04-23T12:39:26.654Z,14.60
2023-04-23T12:41:56.562Z,13.43
2023-04-23T12:44:23.939Z,11.88
2023-04-23T12:47:03.680Z,14.85
2023-04-23T12:49:32.439Z,15.43
2023-04-23T12:52:03.900Z,16.83
2023-04-23T12:54:37.615Z,13.50
2023-04-23T12:57:11.256Z,14.63
2023-04-23T12:59:39.109Z,13.15
2023-04-23T13:02:07.535Z,13.95
2023-04-23T13:04:36.404Z,13.82
2023-04-23T13:07:03.580Z,15.38
2023-04-23T13:09:31.130Z,12.85
2023-04-23T13:12:00.171Z,10.68
2023-04-23T13:14:28.435Z,9.30
2023-04-23T13:17:21.503Z,12.85
2023-04-23T13:19:48.982Z,12.68
2023-04-23T13:25:09.237Z,12.32
2023-04-23T13:27:40.067Z,18.27
2023-04-23T13:30:08.610Z,14.40
2023-04-23T13:32:36.123Z,15.75
2023-04-23T13:35:06.589Z,10.73
2023-04-23T13:37:34.016Z,15.35
2023-04-23T13:40:11.752Z,12.02
2023-04-23T13:42:39.810Z,13.23
2023-04-23T13:45:12.526Z,12.77
2023-04-23T13:47:49.086Z,16.85
2023-04-23T13:50:16.538Z,14.30
2023-04-23T13:52:43.888Z,10.02
2023-04-23T13:55:11.379Z,11.23
2023-04-23T13:57:38.639Z,13.02
2023-04-23T14:00:07.333Z,12.73
2023-04-23T14:02:35.619Z,19.98
2023-04-23T14:05:04.464Z,11.10
2023-04-23T14:07:31.880Z,10.02
2023-04-23T14:09:59.203Z,7.88
2023-04-23T14:12:31.344Z,9.10
2023-04-23T14:15:07.766Z,7.63
2023-04-23T14:17:39.563Z,6.97
2023-04-23T14:20:20.640Z,9.52
2023-04-23T14:22:55.711Z,7.13
2023-04-23T14:25:42.317Z,11.18
2023-04-23T14:28:52.020Z,6.57
2023-04-23T14:31:19.950Z,8.60
2023-04-23T14:34:01.232Z,8.07
2023-04-23T14:37:21.962Z,10.55
2023-04-23T14:39:49.843Z,6.10
2023-04-23T14:42:20.408Z,6.25
2023-04-23T14:44:47.892Z,6.47
2023-04-23T14:47:16.054Z,6.53
2023-04-23T15:01:47.979Z,7.28
2023-04-23T15:04:15.356Z,8.60
2023-04-23T15:06:42.552Z,6.03
2023-04-23T15:09:09.752Z,4.80
2023-04-23T15:11:38.911Z,6.80
2023-04-23T15:14:26.276Z,11.32
2023-04-23T15:17:39.198Z,6.18
2023-04-23T15:20:17.964Z,7.90
2023-04-23T15:22:48.039Z,7.35
2023-04-23T15:25:17.217Z,6.82
2023-04-23T15:27:46.243Z,7.28
2023-04-23T15:30:14.042Z,8.18
2023-04-23T15:32:41.437Z,9.90
2023-04-23T15:35:09.172Z,7.50
2023-04-23T15:37:36.381Z,9.82
2023-04-23T15:40:04.154Z,8.23
2023-04-23T15:42:32.516Z,8.68
2023-04-23T15:45:01.453Z,6.82
2023-04-23T15:47:30.222Z,11.65
2023-04-23T15:53:06.873Z,7.68
2023-04-23T15:55:34.314Z,9.95
2023-04-23T15:58:19.309Z,7.13
2023-04-23T16:00:52.596Z,10.02
2023-04-23T16:03:57.672Z,11.93
2023-04-23T16:07:07.651Z,13.88
2023-04-23T16:09:38.274Z,13.57
2023-04-23T16:12:06.072Z,15.48
2023-04-23T16:14:33.283Z,14.02
2023-04-23T16:17:00.658Z,7.22
2023-04-23T16:19:28.603Z,9.98
2023-04-23T16:21:55.937Z,10.18
2023-04-23T16:24:23.540Z,10.63
2023-04-23T16:26:50.906Z,11.27
2023-04-23T16:29:22.712Z,7.53
2023-04-23T16:31:50.660Z,7.90
2023-04-23T16:34:18.735Z,9.27
2023-04-23T16:39:44.414Z,7.88
2023-04-23T16:47:32.228Z,8.02
2023-04-23T16:59:06.230Z,5.20
2023-04-23T17:14:26.065Z,5.75
2023-04-23T17:16:53.331Z,5.30
2023-04-23T17:19:20.628Z,5.60
2023-04-23T17:21:47.919Z,7.07
2023-04-23T17:24:15.102Z,6.70
2023-04-23T17:26:55.163Z,6.10
2023-04-23T18:19:25.192Z,7.87
2023-04-23T18:21:57.870Z,6.77
2023-04-23T18:24:25.288Z,13.65
2023-04-23T18:26:54.791Z,7.20
2023-04-23T18:29:22.380Z,8.33
2023-04-23T18:36:08.482Z,8.53
2023-04-23T18:38:45.311Z,10.27
2023-04-23T18:44:59.589Z,9.20
2023-04-23T18:50:52.761Z,16.30
2023-04-23T18:56:29.755Z,9.13
2023-04-23T18:59:37.867Z,12.53
2023-04-23T19:02:34.343Z,9.37
2023-04-23T19:08:09.467Z,7.90
2023-04-23T19:10:39.628Z,6.13
2023-04-23T19:13:07.545Z,5.83
2023-04-23T19:19:35.518Z,5.73
2023-04-23T19:22:20.889Z,7.87
2023-04-23T19:32:35.710Z,9.90
2023-04-23T19:39:00.028Z,5.93
2023-04-23T19:41:30.350Z,7.13
2023-04-23T19:44:11.075Z,16.10
2023-04-23T19:49:41.410Z,8.53
2023-04-23T19:52:34.775Z,8.77
2023-04-23T19:55:02.720Z,6.83
2023-04-23T19:57:30.010Z,6.63
2023-04-23T19:59:57.524Z,9.55
2023-04-23T20:02:25.111Z,8.80
2023-04-23T20:04:52.531Z,11.77
2023-04-23T20:07:19.813Z,9.57
2023-04-23T20:09:47.098Z,8.77
2023-04-23T20:12:14.474Z,10.23
2023-04-23T20:14:42.760Z,7.60
2023-04-23T20:17:10.422Z,11.17
2023-04-23T20:19:38.590Z,9.97
2023-04-23T20:22:07.920Z,8.00
2023-04-23T20:29:25.964Z,13.00
2023-04-23T20:32:18.258Z,9.27
2023-04-23T20:35:15.727Z,13.07
2023-04-23T20:41:26.278Z,11.77
2023-04-23T20:43:55.483Z,7.00
2023-04-23T20:46:38.638Z,8.87
2023-04-23T20:49:35.166Z,11.07
2023-04-23T20:52:24.354Z,9.83
2023-04-23T20:58:42.861Z,10.10
2023-04-23T21:01:40.148Z,11.57
2023-04-23T21:18:37.083Z,9.20
2023-04-23T21:21:04.973Z,10.00
2023-04-23T21:23:32.320Z,9.50
2023-04-23T21:25:59.782Z,9.90
2023-04-23T21:28:27.326Z,10.93
2023-04-23T21:30:56.634Z,11.70
2023-04-23T21:33:25.908Z,9.80
2023-04-23T21:35:53.966Z,11.70
2023-04-23T21:38:21.662Z,12.03
2023-04-23T21:40:48.904Z,8.23
2023-04-23T21:43:16.982Z,12.13
2023-04-23T21:45:44.246Z,8.50
2023-04-23T21:48:11.669Z,11.03
2023-04-23T21:50:39.030Z,8.67
2023-04-23T21:53:07.017Z,10.90
2023-04-23T21:55:34.564Z,8.60
2023-04-23T22:00:32.979Z,9.20
2023-04-23T22:03:00.382Z,11.10
2023-04-23T22:05:28.657Z,8.53
2023-04-23T22:07:57.021Z,10.73
2023-04-23T22:10:24.410Z,9.50
2023-04-23T22:12:52.262Z,10.43
2023-04-23T22:15:20.064Z,9.17
2023-04-23T22:17:50.505Z,8.40
2023-04-23T22:20:19.331Z,7.33
2023-04-23T22:22:46.948Z,8.77
2023-04-23T22:25:16.332Z,5.93
2023-04-23T22:27:43.774Z,7.33
2023-04-23T22:30:11.962Z,7.77
2023-04-23T22:32:40.016Z,8.93
2023-04-23T22:35:08.444Z,6.27
2023-04-23T22:37:36.171Z,8.13
2023-04-23T22:40:05.461Z,6.07
2023-04-23T22:42:33.491Z,7.83
2023-04-23T22:45:00.931Z,6.50
2023-04-23T22:47:28.508Z,6.10
2023-04-23T22:49:55.877Z,8.70
2023-04-23T22:52:23.238Z,9.17
2023-04-23T22:54:51.769Z,6.90
2023-04-23T22:57:19.384Z,8.13
2023-04-23T22:59:46.984Z,7.60
2023-04-23T23:02:14.559Z,6.17
2023-04-23T23:04:42.547Z,5.00
2023-04-23T23:07:10.363Z,6.97
2023-04-23T23:09:38.104Z,8.60
2023-04-23T23:12:06.388Z,9.20
2023-04-23T23:14:34.357Z,9.77
2023-04-23T23:17:02.894Z,11.17
2023-04-23T23:19:33.574Z,6.90
2023-04-23T23:22:01.122Z,9.43
2023-04-23T23:24:28.736Z,5.93
2023-04-23T23:26:56.226Z,10.27
2023-04-23T23:29:23.619Z,12.57
2023-04-23T23:31:51.369Z,9.57
2023-04-23T23:34:18.973Z,10.93
2023-04-23T23:36:48.555Z,9.07
2023-04-23T23:39:19.340Z,9.33
2023-04-23T23:41:47.589Z,13.40
2023-04-23T23:44:16.168Z,10.40
2023-04-23T23:46:45.474Z,9.37
2023-04-23T23:49:12.856Z,10.03
2023-04-23T23:51:41.024Z,13.43
2023-04-23T23:54:08.792Z,10.97
2023-04-23T23:56:37.597Z,11.10
2023-04-23T23:59:05.180Z,15.00
